sensor_id;sensor_type;location;lat;lon;timestamp;temperature;humidity
5962;DHT22;3007;50.770;0.250;2022-12-07T00:01:40;3.40;99.90
5962;DHT22;3007;50.770;0.250;2022-12-07T00:04:10;3.40;99.90
5962;DHT22;3007;50.770;0.250;2022-12-07T00:06:39;3.30;99.90
5962;DHT22;3007;50.770;0.250;2022-12-07T00:09:11;3.40;99.90
5962;DHT22;3007;50.770;0.250;2022-12-07T00:11:38;3.40;99.90
5962;DHT22;3007;50.770;0.250;2022-12-07T00:14:07;3.50;99.90
5962;DHT22;3007;50.770;0.250;2022-12-07T00:16:36;3.50;99.90
5962;DHT22;3007;50.770;0.250;2022-12-07T00:19:04;3.50;99.90
5962;DHT22;3007;50.770;0.250;2022-12-07T00:21:32;3.50;99.90
5962;DHT22;3007;50.770;0.250;2022-12-07T00:24:00;3.50;99.90
5962;DHT22;3007;50.770;0.250;2022-12-07T00:26:30;3.50;99.90
5962;DHT22;3007;50.770;0.250;2022-12-07T00:28:59;3.40;99.90
5962;DHT22;3007;50.770;0.250;2022-12-07T00:31:29;3.40;99.90
5962;DHT22;3007;50.770;0.250;2022-12-07T00:33:57;3.40;99.90
5962;DHT22;3007;50.770;0.250;2022-12-07T00:36:26;3.40;99.90
5962;DHT22;3007;50.770;0.250;2022-12-07T00:38:54;3.50;99.90
5962;DHT22;3007;50.770;0.250;2022-12-07T00:41:22;3.40;99.90
5962;DHT22;3007;50.770;0.250;2022-12-07T00:43:51;3.40;99.90
5962;DHT22;3007;50.770;0.250;2022-12-07T00:46:20;3.40;99.90
5962;DHT22;3007;50.770;0.250;2022-12-07T00:48:48;3.40;99.90
5962;DHT22;3007;50.770;0.250;2022-12-07T00:51:17;3.40;99.90
5962;DHT22;3007;50.770;0.250;2022-12-07T00:53:45;3.40;99.90
5962;DHT22;3007;50.770;0.250;2022-12-07T00:56:14;3.40;99.90
5962;DHT22;3007;50.770;0.250;2022-12-07T00:58:42;3.30;99.90
5962;DHT22;3007;50.770;0.250;2022-12-07T01:01:11;3.40;99.90
5962;DHT22;3007;50.770;0.250;2022-12-07T01:03:38;3.40;99.90
5962;DHT22;3007;50.770;0.250;2022-12-07T01:06:05;3.40;99.90
5962;DHT22;3007;50.770;0.250;2022-12-07T01:08:33;3.40;99.90
5962;DHT22;3007;50.770;0.250;2022-12-07T01:11:02;3.40;99.90
5962;DHT22;3007;50.770;0.250;2022-12-07T01:13:30;3.40;99.90
5962;DHT22;3007;50.770;0.250;2022-12-07T01:15:58;3.40;99.90
5962;DHT22;3007;50.770;0.250;2022-12-07T01:18:29;3.40;99.90
5962;DHT22;3007;50.770;0.250;2022-12-07T01:21:01;3.40;99.90
5962;DHT22;3007;50.770;0.250;2022-12-07T01:23:29;3.40;99.90
5962;DHT22;3007;50.770;0.250;2022-12-07T01:25:58;3.40;99.90
5962;DHT22;3007;50.770;0.250;2022-12-07T01:28:26;3.40;99.90
5962;DHT22;3007;50.770;0.250;2022-12-07T01:31:01;3.40;99.90
5962;DHT22;3007;50.770;0.250;2022-12-07T01:33:30;3.40;99.90
5962;DHT22;3007;50.770;0.250;2022-12-07T01:36:02;3.40;99.90
5962;DHT22;3007;50.770;0.250;2022-12-07T01:38:31;3.40;99.90
5962;DHT22;3007;50.770;0.250;2022-12-07T01:41:00;3.40;99.90
5962;DHT22;3007;50.770;0.250;2022-12-07T01:43:29;3.40;99.90
5962;DHT22;3007;50.770;0.250;2022-12-07T01:45:57;3.40;99.90
5962;DHT22;3007;50.770;0.250;2022-12-07T01:48:27;3.40;99.90
5962;DHT22;3007;50.770;0.250;2022-12-07T01:50:56;3.40;99.90
5962;DHT22;3007;50.770;0.250;2022-12-07T01:53:29;3.40;99.90
5962;DHT22;3007;50.770;0.250;2022-12-07T01:55:58;3.40;99.90
5962;DHT22;3007;50.770;0.250;2022-12-07T01:58:25;3.40;99.90
5962;DHT22;3007;50.770;0.250;2022-12-07T02:00:53;3.40;99.90
5962;DHT22;3007;50.770;0.250;2022-12-07T02:03:25;3.40;99.90
5962;DHT22;3007;50.770;0.250;2022-12-07T02:05:55;3.40;99.90
5962;DHT22;3007;50.770;0.250;2022-12-07T02:08:25;3.30;99.90
5962;DHT22;3007;50.770;0.250;2022-12-07T02:10:52;3.30;99.90
5962;DHT22;3007;50.770;0.250;2022-12-07T02:13:21;3.30;99.90
5962;DHT22;3007;50.770;0.250;2022-12-07T02:16:10;3.30;99.90
5962;DHT22;3007;50.770;0.250;2022-12-07T02:18:48;3.30;99.90
5962;DHT22;3007;50.770;0.250;2022-12-07T02:21:25;3.20;99.90
5962;DHT22;3007;50.770;0.250;2022-12-07T02:24:19;3.20;99.90
5962;DHT22;3007;50.770;0.250;2022-12-07T02:30:01;3.10;99.90
5962;DHT22;3007;50.770;0.250;2022-12-07T02:32:37;3.10;99.90
5962;DHT22;3007;50.770;0.250;2022-12-07T02:35:09;3.20;99.90
5962;DHT22;3007;50.770;0.250;2022-12-07T02:37:40;3.20;99.90
5962;DHT22;3007;50.770;0.250;2022-12-07T02:40:11;3.10;99.90
5962;DHT22;3007;50.770;0.250;2022-12-07T02:42:45;3.10;99.90
5962;DHT22;3007;50.770;0.250;2022-12-07T02:45:18;3.10;99.90
5962;DHT22;3007;50.770;0.250;2022-12-07T02:47:50;3.10;99.90
5962;DHT22;3007;50.770;0.250;2022-12-07T02:50:19;3.10;99.90
5962;DHT22;3007;50.770;0.250;2022-12-07T02:52:46;3.10;99.90
5962;DHT22;3007;50.770;0.250;2022-12-07T02:55:15;3.20;99.90
5962;DHT22;3007;50.770;0.250;2022-12-07T02:58:02;3.20;99.90
5962;DHT22;3007;50.770;0.250;2022-12-07T03:00:40;3.20;99.90
5962;DHT22;3007;50.770;0.250;2022-12-07T03:03:13;3.10;99.90
5962;DHT22;3007;50.770;0.250;2022-12-07T03:08:37;3.10;99.90
5962;DHT22;3007;50.770;0.250;2022-12-07T03:11:07;3.10;99.90
5962;DHT22;3007;50.770;0.250;2022-12-07T03:13:40;3.10;99.90
5962;DHT22;3007;50.770;0.250;2022-12-07T03:16:14;3.00;99.90
5962;DHT22;3007;50.770;0.250;2022-12-07T03:18:45;3.00;99.90
5962;DHT22;3007;50.770;0.250;2022-12-07T03:21:15;3.00;99.90
5962;DHT22;3007;50.770;0.250;2022-12-07T03:23:46;3.00;99.90
5962;DHT22;3007;50.770;0.250;2022-12-07T03:26:17;3.00;99.90
5962;DHT22;3007;50.770;0.250;2022-12-07T03:28:50;3.00;99.90
5962;DHT22;3007;50.770;0.250;2022-12-07T03:31:21;3.00;99.90
5962;DHT22;3007;50.770;0.250;2022-12-07T03:33:53;3.10;99.90
5962;DHT22;3007;50.770;0.250;2022-12-07T03:36:28;3.10;99.90
5962;DHT22;3007;50.770;0.250;2022-12-07T03:39:02;3.10;99.90
5962;DHT22;3007;50.770;0.250;2022-12-07T03:41:32;3.10;99.90
5962;DHT22;3007;50.770;0.250;2022-12-07T03:44:02;3.00;99.90
5962;DHT22;3007;50.770;0.250;2022-12-07T03:46:37;3.00;99.90
5962;DHT22;3007;50.770;0.250;2022-12-07T03:49:10;3.00;99.90
5962;DHT22;3007;50.770;0.250;2022-12-07T03:51:43;3.10;99.90
5962;DHT22;3007;50.770;0.250;2022-12-07T03:54:15;3.00;99.90
5962;DHT22;3007;50.770;0.250;2022-12-07T03:56:44;3.00;99.90
5962;DHT22;3007;50.770;0.250;2022-12-07T03:59:13;3.00;99.90
5962;DHT22;3007;50.770;0.250;2022-12-07T04:01:43;3.00;99.90
5962;DHT22;3007;50.770;0.250;2022-12-07T04:04:11;2.90;99.90
5962;DHT22;3007;50.770;0.250;2022-12-07T04:06:38;2.90;99.90
5962;DHT22;3007;50.770;0.250;2022-12-07T04:09:05;3.00;99.90
5962;DHT22;3007;50.770;0.250;2022-12-07T04:11:32;3.00;99.90
5962;DHT22;3007;50.770;0.250;2022-12-07T04:13:59;3.00;99.90
5962;DHT22;3007;50.770;0.250;2022-12-07T04:16:46;3.00;99.90
5962;DHT22;3007;50.770;0.250;2022-12-07T04:19:15;3.00;99.90
5962;DHT22;3007;50.770;0.250;2022-12-07T04:21:42;2.90;99.90
5962;DHT22;3007;50.770;0.250;2022-12-07T04:24:10;2.90;99.90
5962;DHT22;3007;50.770;0.250;2022-12-07T04:26:38;2.90;99.90
5962;DHT22;3007;50.770;0.250;2022-12-07T04:29:05;2.90;99.90
5962;DHT22;3007;50.770;0.250;2022-12-07T04:31:32;2.80;99.90
5962;DHT22;3007;50.770;0.250;2022-12-07T04:34:00;2.80;99.90
5962;DHT22;3007;50.770;0.250;2022-12-07T04:36:27;2.80;99.90
5962;DHT22;3007;50.770;0.250;2022-12-07T04:38:55;2.80;99.90
5962;DHT22;3007;50.770;0.250;2022-12-07T04:41:23;2.70;99.90
5962;DHT22;3007;50.770;0.250;2022-12-07T04:43:54;2.70;99.90
5962;DHT22;3007;50.770;0.250;2022-12-07T04:46:22;2.70;99.90
5962;DHT22;3007;50.770;0.250;2022-12-07T04:48:49;2.70;99.90
5962;DHT22;3007;50.770;0.250;2022-12-07T04:51:20;2.60;99.90
5962;DHT22;3007;50.770;0.250;2022-12-07T04:53:48;2.60;99.90
5962;DHT22;3007;50.770;0.250;2022-12-07T04:56:16;2.60;99.90
5962;DHT22;3007;50.770;0.250;2022-12-07T04:58:44;2.60;99.90
5962;DHT22;3007;50.770;0.250;2022-12-07T05:01:12;2.60;99.90
5962;DHT22;3007;50.770;0.250;2022-12-07T05:03:39;2.60;99.90
5962;DHT22;3007;50.770;0.250;2022-12-07T05:06:06;2.60;99.90
5962;DHT22;3007;50.770;0.250;2022-12-07T05:08:35;2.60;99.90
5962;DHT22;3007;50.770;0.250;2022-12-07T05:11:04;2.60;99.90
5962;DHT22;3007;50.770;0.250;2022-12-07T05:13:32;2.60;99.90
5962;DHT22;3007;50.770;0.250;2022-12-07T05:15:59;2.60;99.90
5962;DHT22;3007;50.770;0.250;2022-12-07T05:18:27;2.60;99.90
5962;DHT22;3007;50.770;0.250;2022-12-07T05:20:54;2.60;99.90
5962;DHT22;3007;50.770;0.250;2022-12-07T05:23:21;2.60;99.90
5962;DHT22;3007;50.770;0.250;2022-12-07T05:25:49;2.60;99.90
5962;DHT22;3007;50.770;0.250;2022-12-07T05:28:16;2.60;99.90
5962;DHT22;3007;50.770;0.250;2022-12-07T05:30:44;2.60;99.90
5962;DHT22;3007;50.770;0.250;2022-12-07T05:33:11;2.60;99.90
5962;DHT22;3007;50.770;0.250;2022-12-07T05:35:38;2.60;99.90
5962;DHT22;3007;50.770;0.250;2022-12-07T05:38:06;2.60;99.90
5962;DHT22;3007;50.770;0.250;2022-12-07T05:40:33;2.50;99.90
5962;DHT22;3007;50.770;0.250;2022-12-07T05:43:01;2.50;99.90
5962;DHT22;3007;50.770;0.250;2022-12-07T05:45:28;2.50;99.90
5962;DHT22;3007;50.770;0.250;2022-12-07T05:47:55;2.40;99.90
5962;DHT22;3007;50.770;0.250;2022-12-07T05:50:23;2.40;99.90
5962;DHT22;3007;50.770;0.250;2022-12-07T05:52:50;2.40;99.90
5962;DHT22;3007;50.770;0.250;2022-12-07T05:55:17;2.40;99.90
5962;DHT22;3007;50.770;0.250;2022-12-07T05:57:44;2.40;99.90
5962;DHT22;3007;50.770;0.250;2022-12-07T06:00:33;2.40;99.90
5962;DHT22;3007;50.770;0.250;2022-12-07T06:02:59;2.30;99.90
5962;DHT22;3007;50.770;0.250;2022-12-07T06:05:26;2.30;99.90
5962;DHT22;3007;50.770;0.250;2022-12-07T06:07:53;2.20;99.90
5962;DHT22;3007;50.770;0.250;2022-12-07T06:10:20;2.20;99.90
5962;DHT22;3007;50.770;0.250;2022-12-07T06:12:47;2.20;99.90
5962;DHT22;3007;50.770;0.250;2022-12-07T06:15:14;2.30;99.90
5962;DHT22;3007;50.770;0.250;2022-12-07T06:17:42;2.30;99.90
5962;DHT22;3007;50.770;0.250;2022-12-07T06:20:09;2.30;99.90
5962;DHT22;3007;50.770;0.250;2022-12-07T06:22:36;2.30;99.90
5962;DHT22;3007;50.770;0.250;2022-12-07T06:25:04;2.40;99.90
5962;DHT22;3007;50.770;0.250;2022-12-07T06:27:32;2.30;99.90
5962;DHT22;3007;50.770;0.250;2022-12-07T06:30:01;2.30;99.90
5962;DHT22;3007;50.770;0.250;2022-12-07T06:32:32;2.30;99.90
5962;DHT22;3007;50.770;0.250;2022-12-07T06:35:00;2.30;99.90
5962;DHT22;3007;50.770;0.250;2022-12-07T06:37:27;2.30;99.90
5962;DHT22;3007;50.770;0.250;2022-12-07T06:39:54;2.30;99.90
5962;DHT22;3007;50.770;0.250;2022-12-07T06:42:22;2.30;99.90
5962;DHT22;3007;50.770;0.250;2022-12-07T06:44:49;2.30;99.90
5962;DHT22;3007;50.770;0.250;2022-12-07T06:47:16;2.30;99.90
5962;DHT22;3007;50.770;0.250;2022-12-07T06:49:43;2.30;99.90
5962;DHT22;3007;50.770;0.250;2022-12-07T06:52:14;2.30;99.90
5962;DHT22;3007;50.770;0.250;2022-12-07T06:54:42;2.20;99.90
5962;DHT22;3007;50.770;0.250;2022-12-07T06:57:09;2.20;99.90
5962;DHT22;3007;50.770;0.250;2022-12-07T06:59:36;2.20;99.90
5962;DHT22;3007;50.770;0.250;2022-12-07T07:02:03;2.20;99.90
5962;DHT22;3007;50.770;0.250;2022-12-07T07:04:30;2.20;99.90
5962;DHT22;3007;50.770;0.250;2022-12-07T07:06:58;2.10;99.90
5962;DHT22;3007;50.770;0.250;2022-12-07T07:09:26;2.10;99.90
5962;DHT22;3007;50.770;0.250;2022-12-07T07:11:53;2.10;99.90
5962;DHT22;3007;50.770;0.250;2022-12-07T07:14:20;2.10;99.90
5962;DHT22;3007;50.770;0.250;2022-12-07T07:16:47;2.10;99.90
5962;DHT22;3007;50.770;0.250;2022-12-07T07:19:14;2.10;99.90
5962;DHT22;3007;50.770;0.250;2022-12-07T07:21:42;2.10;99.90
5962;DHT22;3007;50.770;0.250;2022-12-07T07:24:09;2.10;99.90
5962;DHT22;3007;50.770;0.250;2022-12-07T07:26:41;2.10;99.90
5962;DHT22;3007;50.770;0.250;2022-12-07T07:29:08;2.10;99.90
5962;DHT22;3007;50.770;0.250;2022-12-07T07:31:35;2.20;99.90
5962;DHT22;3007;50.770;0.250;2022-12-07T07:34:02;2.20;99.90
5962;DHT22;3007;50.770;0.250;2022-12-07T07:36:29;2.20;99.90
5962;DHT22;3007;50.770;0.250;2022-12-07T07:38:57;2.20;99.90
5962;DHT22;3007;50.770;0.250;2022-12-07T07:41:27;2.20;99.90
5962;DHT22;3007;50.770;0.250;2022-12-07T07:43:55;2.20;99.90
5962;DHT22;3007;50.770;0.250;2022-12-07T07:46:22;2.20;99.90
5962;DHT22;3007;50.770;0.250;2022-12-07T07:48:49;2.20;99.90
5962;DHT22;3007;50.770;0.250;2022-12-07T07:51:16;2.20;99.90
5962;DHT22;3007;50.770;0.250;2022-12-07T07:53:43;2.20;99.90
5962;DHT22;3007;50.770;0.250;2022-12-07T07:56:12;2.30;99.90
5962;DHT22;3007;50.770;0.250;2022-12-07T07:58:39;2.30;99.90
5962;DHT22;3007;50.770;0.250;2022-12-07T08:01:08;2.30;99.90
5962;DHT22;3007;50.770;0.250;2022-12-07T08:03:35;2.30;99.90
5962;DHT22;3007;50.770;0.250;2022-12-07T08:06:03;2.30;99.90
5962;DHT22;3007;50.770;0.250;2022-12-07T08:08:30;2.40;99.90
5962;DHT22;3007;50.770;0.250;2022-12-07T08:10:57;2.40;99.90
5962;DHT22;3007;50.770;0.250;2022-12-07T08:13:26;2.40;99.90
5962;DHT22;3007;50.770;0.250;2022-12-07T08:15:53;2.50;99.90
5962;DHT22;3007;50.770;0.250;2022-12-07T08:18:22;2.40;99.90
5962;DHT22;3007;50.770;0.250;2022-12-07T08:20:49;2.50;99.90
5962;DHT22;3007;50.770;0.250;2022-12-07T08:23:16;2.50;99.90
5962;DHT22;3007;50.770;0.250;2022-12-07T08:25:43;2.50;99.90
5962;DHT22;3007;50.770;0.250;2022-12-07T08:28:10;2.60;99.90
5962;DHT22;3007;50.770;0.250;2022-12-07T08:30:37;2.60;99.90
5962;DHT22;3007;50.770;0.250;2022-12-07T08:33:05;2.60;99.90
5962;DHT22;3007;50.770;0.250;2022-12-07T08:35:34;2.60;99.90
5962;DHT22;3007;50.770;0.250;2022-12-07T08:38:01;2.70;99.90
5962;DHT22;3007;50.770;0.250;2022-12-07T08:40:29;2.80;99.90
5962;DHT22;3007;50.770;0.250;2022-12-07T08:42:56;2.80;99.90
5962;DHT22;3007;50.770;0.250;2022-12-07T08:45:23;2.90;99.90
5962;DHT22;3007;50.770;0.250;2022-12-07T08:47:58;2.90;99.90
5962;DHT22;3007;50.770;0.250;2022-12-07T08:50:28;3.00;99.90
5962;DHT22;3007;50.770;0.250;2022-12-07T08:52:58;3.00;99.90
5962;DHT22;3007;50.770;0.250;2022-12-07T08:55:25;3.10;99.90
5962;DHT22;3007;50.770;0.250;2022-12-07T08:57:53;3.10;99.90
5962;DHT22;3007;50.770;0.250;2022-12-07T09:00:21;3.10;99.90
5962;DHT22;3007;50.770;0.250;2022-12-07T09:02:48;3.10;99.90
5962;DHT22;3007;50.770;0.250;2022-12-07T09:05:15;3.20;99.90
5962;DHT22;3007;50.770;0.250;2022-12-07T09:07:43;3.20;99.90
5962;DHT22;3007;50.770;0.250;2022-12-07T09:10:13;3.20;99.90
5962;DHT22;3007;50.770;0.250;2022-12-07T09:12:40;3.30;99.90
5962;DHT22;3007;50.770;0.250;2022-12-07T09:15:08;3.30;99.90
5962;DHT22;3007;50.770;0.250;2022-12-07T09:17:35;3.40;99.90
5962;DHT22;3007;50.770;0.250;2022-12-07T09:20:03;3.40;99.90
5962;DHT22;3007;50.770;0.250;2022-12-07T09:22:31;3.50;99.90
5962;DHT22;3007;50.770;0.250;2022-12-07T09:24:59;3.50;99.90
5962;DHT22;3007;50.770;0.250;2022-12-07T09:27:27;3.50;99.90
5962;DHT22;3007;50.770;0.250;2022-12-07T09:29:54;3.50;99.90
5962;DHT22;3007;50.770;0.250;2022-12-07T09:32:22;3.60;99.90
5962;DHT22;3007;50.770;0.250;2022-12-07T09:34:49;3.60;99.90
5962;DHT22;3007;50.770;0.250;2022-12-07T09:37:16;3.60;99.90
5962;DHT22;3007;50.770;0.250;2022-12-07T09:39:43;3.60;99.90
5962;DHT22;3007;50.770;0.250;2022-12-07T09:42:24;3.70;99.90
5962;DHT22;3007;50.770;0.250;2022-12-07T09:44:54;3.80;99.90
5962;DHT22;3007;50.770;0.250;2022-12-07T09:47:22;3.80;99.90
5962;DHT22;3007;50.770;0.250;2022-12-07T09:49:49;3.90;99.90
5962;DHT22;3007;50.770;0.250;2022-12-07T09:52:21;3.90;99.90
5962;DHT22;3007;50.770;0.250;2022-12-07T09:54:52;4.00;99.90
5962;DHT22;3007;50.770;0.250;2022-12-07T09:57:28;4.00;99.90
5962;DHT22;3007;50.770;0.250;2022-12-07T10:00:00;4.10;99.90
5962;DHT22;3007;50.770;0.250;2022-12-07T10:02:36;4.20;99.90
5962;DHT22;3007;50.770;0.250;2022-12-07T10:05:05;4.30;99.90
5962;DHT22;3007;50.770;0.250;2022-12-07T10:07:32;4.30;99.90
5962;DHT22;3007;50.770;0.250;2022-12-07T10:10:02;4.20;99.90
5962;DHT22;3007;50.770;0.250;2022-12-07T10:12:29;4.20;99.90
5962;DHT22;3007;50.770;0.250;2022-12-07T10:15:00;4.20;99.90
5962;DHT22;3007;50.770;0.250;2022-12-07T10:17:34;4.10;99.90
5962;DHT22;3007;50.770;0.250;2022-12-07T10:20:18;4.20;99.90
5962;DHT22;3007;50.770;0.250;2022-12-07T10:22:56;4.20;99.90
5962;DHT22;3007;50.770;0.250;2022-12-07T10:25:26;4.20;99.90
5962;DHT22;3007;50.770;0.250;2022-12-07T10:28:02;4.30;99.90
5962;DHT22;3007;50.770;0.250;2022-12-07T10:30:31;4.20;99.90
5962;DHT22;3007;50.770;0.250;2022-12-07T10:32:59;4.10;99.90
5962;DHT22;3007;50.770;0.250;2022-12-07T10:35:28;4.10;99.90
5962;DHT22;3007;50.770;0.250;2022-12-07T10:37:57;4.00;99.90
5962;DHT22;3007;50.770;0.250;2022-12-07T10:40:28;4.00;99.90
5962;DHT22;3007;50.770;0.250;2022-12-07T10:43:03;3.90;99.90
5962;DHT22;3007;50.770;0.250;2022-12-07T10:45:32;3.90;99.90
5962;DHT22;3007;50.770;0.250;2022-12-07T10:48:05;3.80;99.90
5962;DHT22;3007;50.770;0.250;2022-12-07T10:50:47;3.90;99.90
5962;DHT22;3007;50.770;0.250;2022-12-07T10:56:33;4.00;99.90
5962;DHT22;3007;50.770;0.250;2022-12-07T11:02:14;4.20;99.90
5962;DHT22;3007;50.770;0.250;2022-12-07T11:04:57;4.40;99.90
5962;DHT22;3007;50.770;0.250;2022-12-07T11:07:37;4.50;99.90
5962;DHT22;3007;50.770;0.250;2022-12-07T11:10:11;4.50;99.90
5962;DHT22;3007;50.770;0.250;2022-12-07T11:12:50;4.50;99.90
5962;DHT22;3007;50.770;0.250;2022-12-07T11:15:26;4.50;99.90
5962;DHT22;3007;50.770;0.250;2022-12-07T11:18:00;4.50;99.90
5962;DHT22;3007;50.770;0.250;2022-12-07T11:20:37;4.40;99.90
5962;DHT22;3007;50.770;0.250;2022-12-07T11:23:15;4.50;99.90
5962;DHT22;3007;50.770;0.250;2022-12-07T11:25:50;4.50;99.90
5962;DHT22;3007;50.770;0.250;2022-12-07T11:28:31;4.50;99.90
5962;DHT22;3007;50.770;0.250;2022-12-07T11:31:12;4.50;99.90
5962;DHT22;3007;50.770;0.250;2022-12-07T11:33:45;4.50;99.90
5962;DHT22;3007;50.770;0.250;2022-12-07T11:36:29;4.50;99.90
5962;DHT22;3007;50.770;0.250;2022-12-07T11:39:00;4.40;99.90
5962;DHT22;3007;50.770;0.250;2022-12-07T11:41:32;4.40;99.90
5962;DHT22;3007;50.770;0.250;2022-12-07T11:44:06;4.30;99.90
5962;DHT22;3007;50.770;0.250;2022-12-07T11:46:45;4.30;99.90
5962;DHT22;3007;50.770;0.250;2022-12-07T11:49:20;4.20;99.90
5962;DHT22;3007;50.770;0.250;2022-12-07T11:51:53;4.10;99.90
5962;DHT22;3007;50.770;0.250;2022-12-07T11:54:26;4.10;99.90
5962;DHT22;3007;50.770;0.250;2022-12-07T11:56:56;4.10;99.90
5962;DHT22;3007;50.770;0.250;2022-12-07T11:59:32;4.00;99.90
5962;DHT22;3007;50.770;0.250;2022-12-07T12:02:12;4.00;99.90
5962;DHT22;3007;50.770;0.250;2022-12-07T12:04:50;4.10;99.90
5962;DHT22;3007;50.770;0.250;2022-12-07T12:07:21;4.10;99.90
5962;DHT22;3007;50.770;0.250;2022-12-07T12:09:51;4.10;99.90
5962;DHT22;3007;50.770;0.250;2022-12-07T12:12:48;4.20;99.90
5962;DHT22;3007;50.770;0.250;2022-12-07T12:15:29;4.20;99.90
5962;DHT22;3007;50.770;0.250;2022-12-07T12:18:22;4.30;99.90
5962;DHT22;3007;50.770;0.250;2022-12-07T12:20:56;4.50;99.90
5962;DHT22;3007;50.770;0.250;2022-12-07T12:23:28;4.50;99.90
5962;DHT22;3007;50.770;0.250;2022-12-07T12:26:01;4.50;99.90
5962;DHT22;3007;50.770;0.250;2022-12-07T12:28:32;4.60;99.90
5962;DHT22;3007;50.770;0.250;2022-12-07T12:31:14;4.60;99.90
5962;DHT22;3007;50.770;0.250;2022-12-07T12:33:44;4.50;99.90
5962;DHT22;3007;50.770;0.250;2022-12-07T12:36:24;4.40;99.90
5962;DHT22;3007;50.770;0.250;2022-12-07T12:39:08;4.40;99.90
5962;DHT22;3007;50.770;0.250;2022-12-07T12:41:59;4.30;99.90
5962;DHT22;3007;50.770;0.250;2022-12-07T12:44:41;4.30;99.90
5962;DHT22;3007;50.770;0.250;2022-12-07T12:50:29;4.20;99.90
5962;DHT22;3007;50.770;0.250;2022-12-07T12:53:13;4.20;99.90
5962;DHT22;3007;50.770;0.250;2022-12-07T12:58:43;4.20;99.90
5962;DHT22;3007;50.770;0.250;2022-12-07T13:01:44;4.10;99.90
5962;DHT22;3007;50.770;0.250;2022-12-07T13:04:34;4.20;99.90
5962;DHT22;3007;50.770;0.250;2022-12-07T13:07:07;4.10;99.90
5962;DHT22;3007;50.770;0.250;2022-12-07T13:09:42;4.10;99.90
5962;DHT22;3007;50.770;0.250;2022-12-07T13:12:13;4.10;99.90
5962;DHT22;3007;50.770;0.250;2022-12-07T13:14:56;4.10;99.90
5962;DHT22;3007;50.770;0.250;2022-12-07T13:17:58;4.00;99.90
5962;DHT22;3007;50.770;0.250;2022-12-07T13:20:56;4.00;99.90
5962;DHT22;3007;50.770;0.250;2022-12-07T13:23:29;3.90;99.90
5962;DHT22;3007;50.770;0.250;2022-12-07T13:26:14;4.00;99.90
5962;DHT22;3007;50.770;0.250;2022-12-07T13:28:44;4.00;99.90
5962;DHT22;3007;50.770;0.250;2022-12-07T13:31:21;4.00;99.90
5962;DHT22;3007;50.770;0.250;2022-12-07T13:33:50;3.90;99.90
5962;DHT22;3007;50.770;0.250;2022-12-07T13:36:22;3.90;99.90
5962;DHT22;3007;50.770;0.250;2022-12-07T13:38:52;3.90;99.90
5962;DHT22;3007;50.770;0.250;2022-12-07T13:41:23;3.90;99.90
5962;DHT22;3007;50.770;0.250;2022-12-07T13:43:53;3.90;99.90
5962;DHT22;3007;50.770;0.250;2022-12-07T13:46:26;3.90;99.90
5962;DHT22;3007;50.770;0.250;2022-12-07T13:48:53;3.90;99.90
5962;DHT22;3007;50.770;0.250;2022-12-07T13:51:24;3.90;99.90
5962;DHT22;3007;50.770;0.250;2022-12-07T13:53:53;3.90;99.90
5962;DHT22;3007;50.770;0.250;2022-12-07T13:56:28;3.90;99.90
5962;DHT22;3007;50.770;0.250;2022-12-07T13:58:58;3.90;99.90
5962;DHT22;3007;50.770;0.250;2022-12-07T14:01:26;3.90;99.90
5962;DHT22;3007;50.770;0.250;2022-12-07T14:03:53;3.90;99.90
5962;DHT22;3007;50.770;0.250;2022-12-07T14:06:24;3.80;99.90
5962;DHT22;3007;50.770;0.250;2022-12-07T14:09:08;3.80;99.90
5962;DHT22;3007;50.770;0.250;2022-12-07T14:11:37;3.80;99.90
5962;DHT22;3007;50.770;0.250;2022-12-07T14:14:05;3.80;99.90
5962;DHT22;3007;50.770;0.250;2022-12-07T14:16:34;3.80;99.90
5962;DHT22;3007;50.770;0.250;2022-12-07T14:19:03;3.80;99.90
5962;DHT22;3007;50.770;0.250;2022-12-07T14:21:32;3.70;99.90
5962;DHT22;3007;50.770;0.250;2022-12-07T14:24:12;3.70;99.90
5962;DHT22;3007;50.770;0.250;2022-12-07T14:26:43;3.70;99.90
5962;DHT22;3007;50.770;0.250;2022-12-07T14:29:32;3.70;99.90
5962;DHT22;3007;50.770;0.250;2022-12-07T14:32:19;3.70;99.90
5962;DHT22;3007;50.770;0.250;2022-12-07T14:34:57;3.70;99.90
5962;DHT22;3007;50.770;0.250;2022-12-07T14:37:25;3.70;99.90
5962;DHT22;3007;50.770;0.250;2022-12-07T14:39:52;3.60;99.90
5962;DHT22;3007;50.770;0.250;2022-12-07T14:42:24;3.60;99.90
5962;DHT22;3007;50.770;0.250;2022-12-07T14:44:51;3.60;99.90
5962;DHT22;3007;50.770;0.250;2022-12-07T14:47:18;3.60;99.90
5962;DHT22;3007;50.770;0.250;2022-12-07T14:49:46;3.60;99.90
5962;DHT22;3007;50.770;0.250;2022-12-07T14:52:16;3.50;99.90
5962;DHT22;3007;50.770;0.250;2022-12-07T14:54:44;3.50;99.90
5962;DHT22;3007;50.770;0.250;2022-12-07T14:57:11;3.40;99.90
5962;DHT22;3007;50.770;0.250;2022-12-07T14:59:40;3.40;99.90
5962;DHT22;3007;50.770;0.250;2022-12-07T15:02:09;3.40;99.90
5962;DHT22;3007;50.770;0.250;2022-12-07T15:04:38;3.30;99.90
5962;DHT22;3007;50.770;0.250;2022-12-07T15:07:08;3.30;99.90
5962;DHT22;3007;50.770;0.250;2022-12-07T15:09:36;3.30;99.90
5962;DHT22;3007;50.770;0.250;2022-12-07T15:12:04;3.20;99.90
5962;DHT22;3007;50.770;0.250;2022-12-07T15:14:31;3.20;99.90
5962;DHT22;3007;50.770;0.250;2022-12-07T15:16:59;3.20;99.90
5962;DHT22;3007;50.770;0.250;2022-12-07T15:19:26;3.20;99.90
5962;DHT22;3007;50.770;0.250;2022-12-07T15:21:53;3.10;99.90
5962;DHT22;3007;50.770;0.250;2022-12-07T15:24:22;3.10;99.90
5962;DHT22;3007;50.770;0.250;2022-12-07T15:26:49;3.10;99.90
5962;DHT22;3007;50.770;0.250;2022-12-07T15:29:17;3.10;99.90
5962;DHT22;3007;50.770;0.250;2022-12-07T15:31:44;3.10;99.90
5962;DHT22;3007;50.770;0.250;2022-12-07T15:34:13;3.00;99.90
5962;DHT22;3007;50.770;0.250;2022-12-07T15:36:40;3.00;99.90
5962;DHT22;3007;50.770;0.250;2022-12-07T15:39:08;3.00;99.90
5962;DHT22;3007;50.770;0.250;2022-12-07T15:41:35;3.00;99.90
5962;DHT22;3007;50.770;0.250;2022-12-07T15:44:02;3.00;99.90
5962;DHT22;3007;50.770;0.250;2022-12-07T15:46:47;3.00;99.90
5962;DHT22;3007;50.770;0.250;2022-12-07T15:49:18;3.00;99.90
5962;DHT22;3007;50.770;0.250;2022-12-07T15:51:46;3.00;99.90
5962;DHT22;3007;50.770;0.250;2022-12-07T15:54:17;2.90;99.90
5962;DHT22;3007;50.770;0.250;2022-12-07T15:56:45;2.90;99.90
5962;DHT22;3007;50.770;0.250;2022-12-07T15:59:12;2.80;99.90
5962;DHT22;3007;50.770;0.250;2022-12-07T16:01:39;2.80;99.90
5962;DHT22;3007;50.770;0.250;2022-12-07T16:04:06;2.80;99.90
5962;DHT22;3007;50.770;0.250;2022-12-07T16:06:35;2.70;99.90
5962;DHT22;3007;50.770;0.250;2022-12-07T16:09:02;2.70;99.90
5962;DHT22;3007;50.770;0.250;2022-12-07T16:11:30;2.70;99.90
5962;DHT22;3007;50.770;0.250;2022-12-07T16:13:57;2.70;99.90
5962;DHT22;3007;50.770;0.250;2022-12-07T16:16:25;2.60;99.90
5962;DHT22;3007;50.770;0.250;2022-12-07T16:18:53;2.60;99.90
5962;DHT22;3007;50.770;0.250;2022-12-07T16:21:21;2.60;99.90
5962;DHT22;3007;50.770;0.250;2022-12-07T16:23:49;2.50;99.90
5962;DHT22;3007;50.770;0.250;2022-12-07T16:26:17;2.50;99.90
5962;DHT22;3007;50.770;0.250;2022-12-07T16:28:47;2.50;99.90
5962;DHT22;3007;50.770;0.250;2022-12-07T16:31:16;2.50;99.90
5962;DHT22;3007;50.770;0.250;2022-12-07T16:33:44;2.50;99.90
5962;DHT22;3007;50.770;0.250;2022-12-07T16:36:12;2.40;99.90
5962;DHT22;3007;50.770;0.250;2022-12-07T16:38:42;2.40;99.90
5962;DHT22;3007;50.770;0.250;2022-12-07T16:41:11;2.40;99.90
5962;DHT22;3007;50.770;0.250;2022-12-07T16:43:38;2.40;99.90
5962;DHT22;3007;50.770;0.250;2022-12-07T16:46:05;2.40;99.90
5962;DHT22;3007;50.770;0.250;2022-12-07T16:48:36;2.50;99.90
5962;DHT22;3007;50.770;0.250;2022-12-07T16:51:04;2.50;99.90
5962;DHT22;3007;50.770;0.250;2022-12-07T16:53:31;2.50;99.90
5962;DHT22;3007;50.770;0.250;2022-12-07T16:55:58;2.50;99.90
5962;DHT22;3007;50.770;0.250;2022-12-07T16:58:27;2.50;99.90